Manhattan Beach, California
Current Conditions -  °F | °C
As of 1:53 PM on Sunday 21 Dec 2014 (Local Time) from KLAX Reporting Station
Broken Clouds Broken Clouds  
Wind Chill: 63°   Ceiling: 20000
Heat Index: 63°   Visibility: 7mi
Dew Point: 55°   Wind: 5mph
Humidity: 75%   Direction: 250°WSW
Pressure: 30.06"   Gusts: NA
Location:  33.89°N, 118.41°W
Report Text: KLAX 212153Z 25004KT 7SM FEW150 BKN200 BKN250 17/13 A3006 RMK AO2 SLP178 T01720128
Loading
Personal Weather Stations






























Interactive Weather Map New forecast layout! Learn more

10-Day Weather Forecast

Advertisements
Track Severe Weather on mobile